sensor_id;sensor_type;location;lat;lon;timestamp;pressure;altitude;pressure_sealevel;temperature;humidity
7170;BME280;3626;42.656;23.312;2023-04-27T00:00:02;94216.00;;;6.82;63.65
7170;BME280;3626;42.656;23.312;2023-04-27T00:00:09;94219.34;;;6.82;63.61
7170;BME280;3626;42.656;23.312;2023-04-27T00:00:15;94217.59;;;6.83;63.53
7170;BME280;3626;42.656;23.312;2023-04-27T00:00:21;94222.72;;;6.83;63.31
7170;BME280;3626;42.656;23.312;2023-04-27T00:00:27;94215.81;;;6.83;63.19
7170;BME280;3626;42.656;23.312;2023-04-27T00:00:35;94220.97;;;6.83;63.47
7170;BME280;3626;42.656;23.312;2023-04-27T00:00:40;94216.78;;;6.82;63.54
7170;BME280;3626;42.656;23.312;2023-04-27T00:00:47;94225.28;;;6.83;63.42
7170;BME280;3626;42.656;23.312;2023-04-27T00:00:53;94217.59;;;6.83;63.47
7170;BME280;3626;42.656;23.312;2023-04-27T00:00:59;94218.56;;;6.82;63.09
7170;BME280;3626;42.656;23.312;2023-04-27T00:01:08;94227.22;;;6.81;63.81
7170;BME280;3626;42.656;23.312;2023-04-27T00:01:14;94232.34;;;6.81;63.94
7170;BME280;3626;42.656;23.312;2023-04-27T00:01:22;94228.97;;;6.80;63.66
7170;BME280;3626;42.656;23.312;2023-04-27T00:01:28;94225.59;;;6.80;63.71
7170;BME280;3626;42.656;23.312;2023-04-27T00:01:34;94223.84;;;6.80;63.38
7170;BME280;3626;42.656;23.312;2023-04-27T00:01:39;94225.59;;;6.80;63.72
7170;BME280;3626;42.656;23.312;2023-04-27T00:01:45;94224.78;;;6.79;63.45
7170;BME280;3626;42.656;23.312;2023-04-27T00:01:51;94221.28;;;6.80;63.66
7170;BME280;3626;42.656;23.312;2023-04-27T00:01:58;94223.84;;;6.80;64.08
7170;BME280;3626;42.656;23.312;2023-04-27T00:02:03;94222.09;;;6.81;64.17
7170;BME280;3626;42.656;23.312;2023-04-27T00:02:09;94228.00;;;6.81;63.91
7170;BME280;3626;42.656;23.312;2023-04-27T00:02:16;94233.16;;;6.81;64.31
7170;BME280;3626;42.656;23.312;2023-04-27T00:02:21;94232.34;;;6.81;64.10
7170;BME280;3626;42.656;23.312;2023-04-27T00:02:27;94231.53;;;6.80;63.60
7170;BME280;3626;42.656;23.312;2023-04-27T00:02:33;94221.41;;;6.79;63.32
7170;BME280;3626;42.656;23.312;2023-04-27T00:02:38;94220.63;;;6.78;63.07
7170;BME280;3626;42.656;23.312;2023-04-27T00:02:44;94216.28;;;6.79;63.37
7170;BME280;3626;42.656;23.312;2023-04-27T00:02:51;94218.06;;;6.78;63.29
7170;BME280;3626;42.656;23.312;2023-04-27T00:02:57;94219.66;;;6.79;63.12
7170;BME280;3626;42.656;23.312;2023-04-27T00:03:04;94217.09;;;6.79;63.29
7170;BME280;3626;42.656;23.312;2023-04-27T00:03:11;94216.28;;;6.79;63.50
7170;BME280;3626;42.656;23.312;2023-04-27T00:03:17;94223.03;;;6.80;63.99
7170;BME280;3626;42.656;23.312;2023-04-27T00:03:23;94227.34;;;6.79;63.64
7170;BME280;3626;42.656;23.312;2023-04-27T00:03:29;94228.16;;;6.80;63.62
7170;BME280;3626;42.656;23.312;2023-04-27T00:03:35;94226.41;;;6.80;63.84
7170;BME280;3626;42.656;23.312;2023-04-27T00:03:41;94222.22;;;6.79;63.31
7170;BME280;3626;42.656;23.312;2023-04-27T00:03:46;94224.78;;;6.79;63.55
7170;BME280;3626;42.656;23.312;2023-04-27T00:03:53;94234.09;;;6.80;63.51
7170;BME280;3626;42.656;23.312;2023-04-27T00:03:58;94223.97;;;6.79;63.55
7170;BME280;3626;42.656;23.312;2023-04-27T00:04:04;94226.41;;;6.80;63.75
7170;BME280;3626;42.656;23.312;2023-04-27T00:04:12;94231.69;;;6.79;63.19
7170;BME280;3626;42.656;23.312;2023-04-27T00:04:18;94228.31;;;6.78;63.75
7170;BME280;3626;42.656;23.312;2023-04-27T00:04:24;94229.91;;;6.79;63.61
7170;BME280;3626;42.656;23.312;2023-04-27T00:04:32;94219.00;;;6.77;63.56
7170;BME280;3626;42.656;23.312;2023-04-27T00:04:38;94223.19;;;6.78;63.44
7170;BME280;3626;42.656;23.312;2023-04-27T00:04:43;94229.09;;;6.79;63.46
7170;BME280;3626;42.656;23.312;2023-04-27T00:04:49;94223.19;;;6.78;63.62
7170;BME280;3626;42.656;23.312;2023-04-27T00:04:57;94212.91;;;6.78;63.56
7170;BME280;3626;42.656;23.312;2023-04-27T00:05:04;94220.63;;;6.78;63.19
7170;BME280;3626;42.656;23.312;2023-04-27T00:05:09;94218.84;;;6.79;63.22
7170;BME280;3626;42.656;23.312;2023-04-27T00:05:16;94215.50;;;6.78;63.09
7170;BME280;3626;42.656;23.312;2023-04-27T00:05:22;94217.25;;;6.78;63.35
7170;BME280;3626;42.656;23.312;2023-04-27T00:05:27;94224.94;;;6.78;63.71
7170;BME280;3626;42.656;23.312;2023-04-27T00:05:34;94224.16;;;6.77;63.36
7170;BME280;3626;42.656;23.312;2023-04-27T00:05:40;94221.59;;;6.77;63.97
7170;BME280;3626;42.656;23.312;2023-04-27T00:05:46;94223.34;;;6.76;63.54
7170;BME280;3626;42.656;23.312;2023-04-27T00:05:53;94230.25;;;6.76;63.39
7170;BME280;3626;42.656;23.312;2023-04-27T00:05:58;94225.91;;;6.76;63.71
7170;BME280;3626;42.656;23.312;2023-04-27T00:06:04;94226.88;;;6.75;63.51
7170;BME280;3626;42.656;23.312;2023-04-27T00:06:10;94224.16;;;6.77;63.77
7170;BME280;3626;42.656;23.312;2023-04-27T00:06:16;94224.16;;;6.77;63.80
7170;BME280;3626;42.656;23.312;2023-04-27T00:06:22;94223.34;;;6.76;63.71
7170;BME280;3626;42.656;23.312;2023-04-27T00:06:28;94225.91;;;6.76;63.60
7170;BME280;3626;42.656;23.312;2023-04-27T00:06:33;94217.41;;;6.76;63.21
7170;BME280;3626;42.656;23.312;2023-04-27T00:06:39;94225.91;;;6.76;63.43
7170;BME280;3626;42.656;23.312;2023-04-27T00:06:45;94224.16;;;6.77;63.48
7170;BME280;3626;42.656;23.312;2023-04-27T00:06:51;94226.72;;;6.77;63.75
7170;BME280;3626;42.656;23.312;2023-04-27T00:06:56;94228.31;;;6.78;63.78
7170;BME280;3626;42.656;23.312;2023-04-27T00:07:02;94223.34;;;6.76;63.83
7170;BME280;3626;42.656;23.312;2023-04-27T00:07:08;94233.44;;;6.78;63.76
7170;BME280;3626;42.656;23.312;2023-04-27T00:07:16;94227.50;;;6.78;63.64
7170;BME280;3626;42.656;23.312;2023-04-27T00:07:22;94227.50;;;6.78;63.82
7170;BME280;3626;42.656;23.312;2023-04-27T00:07:33;94233.44;;;6.78;63.74
7170;BME280;3626;42.656;23.312;2023-04-27T00:07:39;94234.25;;;6.79;63.97
7170;BME280;3626;42.656;23.312;2023-04-27T00:07:44;94232.63;;;6.78;63.98
7170;BME280;3626;42.656;23.312;2023-04-27T00:07:50;94233.44;;;6.78;64.00
7170;BME280;3626;42.656;23.312;2023-04-27T00:07:56;94237.78;;;6.78;64.01
7170;BME280;3626;42.656;23.312;2023-04-27T00:08:02;94235.22;;;6.78;63.78
7170;BME280;3626;42.656;23.312;2023-04-27T00:08:08;94235.03;;;6.79;64.13
7170;BME280;3626;42.656;23.312;2023-04-27T00:08:13;94241.94;;;6.79;64.18
7170;BME280;3626;42.656;23.312;2023-04-27T00:08:19;94237.59;;;6.79;64.47
7170;BME280;3626;42.656;23.312;2023-04-27T00:08:25;94234.25;;;6.79;64.17
7170;BME280;3626;42.656;23.312;2023-04-27T00:08:31;94236.00;;;6.78;63.91
7170;BME280;3626;42.656;23.312;2023-04-27T00:08:36;94236.00;;;6.78;64.01
7170;BME280;3626;42.656;23.312;2023-04-27T00:08:42;94229.91;;;6.79;64.17
7170;BME280;3626;42.656;23.312;2023-04-27T00:08:48;94228.31;;;6.78;63.84
7170;BME280;3626;42.656;23.312;2023-04-27T00:08:55;94232.47;;;6.79;64.16
7170;BME280;3626;42.656;23.312;2023-04-27T00:09:01;94236.00;;;6.78;63.71
7170;BME280;3626;42.656;23.312;2023-04-27T00:09:07;94238.56;;;6.78;64.08
7170;BME280;3626;42.656;23.312;2023-04-27T00:09:12;94236.81;;;6.79;63.98
7170;BME280;3626;42.656;23.312;2023-04-27T00:09:20;94229.09;;;6.79;64.01
7170;BME280;3626;42.656;23.312;2023-04-27T00:09:26;94226.53;;;6.79;63.47
7170;BME280;3626;42.656;23.312;2023-04-27T00:09:31;94229.09;;;6.79;63.25
7170;BME280;3626;42.656;23.312;2023-04-27T00:09:37;94223.97;;;6.79;63.40
7170;BME280;3626;42.656;23.312;2023-04-27T00:09:43;94223.19;;;6.78;63.53
7170;BME280;3626;42.656;23.312;2023-04-27T00:09:49;94234.25;;;6.79;63.37
7170;BME280;3626;42.656;23.312;2023-04-27T00:09:56;94227.50;;;6.78;63.62
7170;BME280;3626;42.656;23.312;2023-04-27T00:10:01;94227.34;;;6.79;63.43
7170;BME280;3626;42.656;23.312;2023-04-27T00:10:08;94223.19;;;6.78;63.31
7170;BME280;3626;42.656;23.312;2023-04-27T00:10:14;94223.19;;;6.78;63.63
7170;BME280;3626;42.656;23.312;2023-04-27T00:10:21;94228.31;;;6.78;63.48
7170;BME280;3626;42.656;23.312;2023-04-27T00:10:26;94229.09;;;6.79;63.13
7170;BME280;3626;42.656;23.312;2023-04-27T00:10:32;94230.88;;;6.78;63.20
7170;BME280;3626;42.656;23.312;2023-04-27T00:10:38;94236.97;;;6.77;63.01
7170;BME280;3626;42.656;23.312;2023-04-27T00:10:44;94219.97;;;6.76;63.18
7170;BME280;3626;42.656;23.312;2023-04-27T00:10:50;94234.41;;;6.77;63.21
7170;BME280;3626;42.656;23.312;2023-04-27T00:10:56;94229.28;;;6.77;63.01
7170;BME280;3626;42.656;23.312;2023-04-27T00:11:03;94225.91;;;6.76;63.53
7170;BME280;3626;42.656;23.312;2023-04-27T00:11:09;94225.91;;;6.76;63.39
7170;BME280;3626;42.656;23.312;2023-04-27T00:11:15;94232.81;;;6.76;63.47
7170;BME280;3626;42.656;23.312;2023-04-27T00:11:21;94231.03;;;6.76;63.19
7170;BME280;3626;42.656;23.312;2023-04-27T00:11:26;94229.28;;;6.77;63.56
7170;BME280;3626;42.656;23.312;2023-04-27T00:11:32;94228.47;;;6.76;63.64
7170;BME280;3626;42.656;23.312;2023-04-27T00:11:40;94227.69;;;6.76;63.49
7170;BME280;3626;42.656;23.312;2023-04-27T00:11:49;94237.94;;;6.76;63.55
7170;BME280;3626;42.656;23.312;2023-04-27T00:11:54;94240.50;;;6.76;63.82
7170;BME280;3626;42.656;23.312;2023-04-27T00:12:00;94242.25;;;6.75;63.72
7170;BME280;3626;42.656;23.312;2023-04-27T00:12:06;94234.56;;;6.75;63.80
7170;BME280;3626;42.656;23.312;2023-04-27T00:12:12;94233.72;;;6.75;63.62
7170;BME280;3626;42.656;23.312;2023-04-27T00:12:18;94234.56;;;6.75;63.94
7170;BME280;3626;42.656;23.312;2023-04-27T00:12:23;94231.16;;;6.75;63.58
7170;BME280;3626;42.656;23.312;2023-04-27T00:12:29;94231.16;;;6.75;63.69
7170;BME280;3626;42.656;23.312;2023-04-27T00:12:35;94242.25;;;6.75;63.68
7170;BME280;3626;42.656;23.312;2023-04-27T00:12:42;94241.28;;;6.76;63.55
7170;BME280;3626;42.656;23.312;2023-04-27T00:12:48;94238.88;;;6.75;63.36
7170;BME280;3626;42.656;23.312;2023-04-27T00:12:54;94237.25;;;6.74;63.07
7170;BME280;3626;42.656;23.312;2023-04-27T00:13:00;94235.66;;;6.73;63.49
7170;BME280;3626;42.656;23.312;2023-04-27T00:13:06;94230.53;;;6.73;63.26
7170;BME280;3626;42.656;23.312;2023-04-27T00:13:14;94232.13;;;6.74;63.58
7170;BME280;3626;42.656;23.312;2023-04-27T00:13:20;94233.09;;;6.73;63.58
7170;BME280;3626;42.656;23.312;2023-04-27T00:13:26;94235.66;;;6.73;63.85
7170;BME280;3626;42.656;23.312;2023-04-27T00:13:32;94234.69;;;6.74;63.59
7170;BME280;3626;42.656;23.312;2023-04-27T00:13:38;94237.25;;;6.74;63.44
7170;BME280;3626;42.656;23.312;2023-04-27T00:13:43;94237.25;;;6.74;63.59
7170;BME280;3626;42.656;23.312;2023-04-27T00:13:49;94233.91;;;6.73;63.49
7170;BME280;3626;42.656;23.312;2023-04-27T00:13:55;94235.50;;;6.74;63.49
7170;BME280;3626;42.656;23.312;2023-04-27T00:14:01;94228.78;;;6.73;63.37
7170;BME280;3626;42.656;23.312;2023-04-27T00:14:06;94233.91;;;6.73;63.26
7170;BME280;3626;42.656;23.312;2023-04-27T00:14:12;94237.25;;;6.74;63.23
7170;BME280;3626;42.656;23.312;2023-04-27T00:14:18;94234.88;;;6.72;63.08
7170;BME280;3626;42.656;23.312;2023-04-27T00:14:25;94228.94;;;6.72;62.86
7170;BME280;3626;42.656;23.312;2023-04-27T00:14:32;94223.00;;;6.71;62.98
7170;BME280;3626;42.656;23.312;2023-04-27T00:14:38;94230.69;;;6.71;62.92
7170;BME280;3626;42.656;23.312;2023-04-27T00:14:45;94226.50;;;6.70;62.79
7170;BME280;3626;42.656;23.312;2023-04-27T00:14:51;94221.38;;;6.70;63.08
7170;BME280;3626;42.656;23.312;2023-04-27T00:14:56;94230.81;;;6.70;62.79
7170;BME280;3626;42.656;23.312;2023-04-27T00:15:02;94236.75;;;6.70;62.66
7170;BME280;3626;42.656;23.312;2023-04-27T00:15:09;94224.91;;;6.69;63.07
7170;BME280;3626;42.656;23.312;2023-04-27T00:15:15;94227.47;;;6.69;62.80
7170;BME280;3626;42.656;23.312;2023-04-27T00:15:21;94228.44;;;6.68;63.07
7170;BME280;3626;42.656;23.312;2023-04-27T00:15:27;94233.56;;;6.68;62.97
7170;BME280;3626;42.656;23.312;2023-04-27T00:15:33;94231.00;;;6.68;63.35
7170;BME280;3626;42.656;23.312;2023-04-27T00:15:39;94231.78;;;6.69;63.22
7170;BME280;3626;42.656;23.312;2023-04-27T00:15:45;94234.34;;;6.69;63.14
7170;BME280;3626;42.656;23.312;2023-04-27T00:15:51;94234.34;;;6.69;63.31
7170;BME280;3626;42.656;23.312;2023-04-27T00:15:56;94234.34;;;6.69;63.22
7170;BME280;3626;42.656;23.312;2023-04-27T00:16:05;94234.34;;;6.69;63.31
7170;BME280;3626;42.656;23.312;2023-04-27T00:16:11;94235.97;;;6.70;63.33
7170;BME280;3626;42.656;23.312;2023-04-27T00:16:18;94228.25;;;6.70;63.23
7170;BME280;3626;42.656;23.312;2023-04-27T00:16:23;94231.00;;;6.68;63.12
7170;BME280;3626;42.656;23.312;2023-04-27T00:16:29;94236.91;;;6.69;63.43
7170;BME280;3626;42.656;23.312;2023-04-27T00:16:37;94232.75;;;6.68;63.48
7170;BME280;3626;42.656;23.312;2023-04-27T00:16:42;94234.34;;;6.69;63.72
7170;BME280;3626;42.656;23.312;2023-04-27T00:16:48;94241.25;;;6.68;63.90
7170;BME280;3626;42.656;23.312;2023-04-27T00:16:54;94231.00;;;6.68;63.76
7170;BME280;3626;42.656;23.312;2023-04-27T00:17:00;94237.88;;;6.68;63.83
7170;BME280;3626;42.656;23.312;2023-04-27T00:17:05;94231.97;;;6.67;63.31
7170;BME280;3626;42.656;23.312;2023-04-27T00:17:13;94230.31;;;6.66;63.29
7170;BME280;3626;42.656;23.312;2023-04-27T00:17:19;94227.75;;;6.66;63.33
7170;BME280;3626;42.656;23.312;2023-04-27T00:17:25;94225.19;;;6.66;63.31
7170;BME280;3626;42.656;23.312;2023-04-27T00:17:30;94229.53;;;6.66;62.89
7170;BME280;3626;42.656;23.312;2023-04-27T00:17:36;94235.63;;;6.65;62.98
7170;BME280;3626;42.656;23.312;2023-04-27T00:17:43;94233.84;;;6.65;63.14
7170;BME280;3626;42.656;23.312;2023-04-27T00:17:49;94234.00;;;6.64;62.94
7170;BME280;3626;42.656;23.312;2023-04-27T00:17:54;94236.56;;;6.64;63.23
7170;BME280;3626;42.656;23.312;2023-04-27T00:18:01;94232.41;;;6.63;63.22
7170;BME280;3626;42.656;23.312;2023-04-27T00:18:07;94235.78;;;6.63;63.13
7170;BME280;3626;42.656;23.312;2023-04-27T00:18:13;94234.97;;;6.63;63.29
7170;BME280;3626;42.656;23.312;2023-04-27T00:18:19;94234.97;;;6.63;63.23
7170;BME280;3626;42.656;23.312;2023-04-27T00:18:25;94229.03;;;6.62;63.42
7170;BME280;3626;42.656;23.312;2023-04-27T00:18:31;94233.34;;;6.62;63.49
7170;BME280;3626;42.656;23.312;2023-04-27T00:18:37;94233.34;;;6.62;63.36
7170;BME280;3626;42.656;23.312;2023-04-27T00:18:43;94223.25;;;6.60;63.59
7170;BME280;3626;42.656;23.312;2023-04-27T00:18:48;94227.41;;;6.61;63.29
7170;BME280;3626;42.656;23.312;2023-04-27T00:18:56;94226.63;;;6.61;63.50
7170;BME280;3626;42.656;23.312;2023-04-27T00:19:01;94231.75;;;6.61;63.28
7170;BME280;3626;42.656;23.312;2023-04-27T00:19:07;94235.28;;;6.60;63.64
7170;BME280;3626;42.656;23.312;2023-04-27T00:19:14;94234.47;;;6.59;63.32
7170;BME280;3626;42.656;23.312;2023-04-27T00:19:20;94233.66;;;6.59;63.63
7170;BME280;3626;42.656;23.312;2023-04-27T00:19:27;94235.41;;;6.58;63.98
7170;BME280;3626;42.656;23.312;2023-04-27T00:19:32;94237.97;;;6.58;63.49
7170;BME280;3626;42.656;23.312;2023-04-27T00:19:39;94237.16;;;6.58;63.21
7170;BME280;3626;42.656;23.312;2023-04-27T00:19:46;94238.13;;;6.57;63.26
7170;BME280;3626;42.656;23.312;2023-04-27T00:19:52;94237.16;;;6.58;63.78
7170;BME280;3626;42.656;23.312;2023-04-27T00:19:58;94245.81;;;6.57;63.73
7170;BME280;3626;42.656;23.312;2023-04-27T00:20:06;94233.00;;;6.57;63.34
7170;BME280;3626;42.656;23.312;2023-04-27T00:20:14;94237.16;;;6.58;63.79
7170;BME280;3626;42.656;23.312;2023-04-27T00:20:20;94242.28;;;6.58;63.46
7170;BME280;3626;42.656;23.312;2023-04-27T00:20:26;94239.72;;;6.58;63.83
7170;BME280;3626;42.656;23.312;2023-04-27T00:20:33;94242.28;;;6.58;63.96
7170;BME280;3626;42.656;23.312;2023-04-27T00:20:40;94242.28;;;6.58;63.96
7170;BME280;3626;42.656;23.312;2023-04-27T00:20:46;94242.28;;;6.58;64.11
7170;BME280;3626;42.656;23.312;2023-04-27T00:20:51;94241.38;;;6.59;63.85
7170;BME280;3626;42.656;23.312;2023-04-27T00:20:57;94236.38;;;6.57;63.94
7170;BME280;3626;42.656;23.312;2023-04-27T00:21:03;94247.41;;;6.58;63.84
7170;BME280;3626;42.656;23.312;2023-04-27T00:21:08;94242.28;;;6.58;63.54
7170;BME280;3626;42.656;23.312;2023-04-27T00:21:14;94242.28;;;6.58;63.92
7170;BME280;3626;42.656;23.312;2023-04-27T00:21:20;94247.41;;;6.58;63.77
7170;BME280;3626;42.656;23.312;2023-04-27T00:21:26;94248.22;;;6.58;63.82
7170;BME280;3626;42.656;23.312;2023-04-27T00:21:32;94243.94;;;6.59;63.73
7170;BME280;3626;42.656;23.312;2023-04-27T00:21:38;94240.41;;;6.60;63.80
7170;BME280;3626;42.656;23.312;2023-04-27T00:21:44;94241.38;;;6.59;63.40
7170;BME280;3626;42.656;23.312;2023-04-27T00:21:49;94242.16;;;6.59;63.58
7170;BME280;3626;42.656;23.312;2023-04-27T00:21:57;94238.81;;;6.59;63.39
7170;BME280;3626;42.656;23.312;2023-04-27T00:22:04;94247.13;;;6.61;63.34
7170;BME280;3626;42.656;23.312;2023-04-27T00:22:11;94241.19;;;6.60;63.82
7170;BME280;3626;42.656;23.312;2023-04-27T00:22:17;94240.41;;;6.60;63.50
7170;BME280;3626;42.656;23.312;2023-04-27T00:22:22;94241.19;;;6.60;63.41
7170;BME280;3626;42.656;23.312;2023-04-27T00:22:28;94245.53;;;6.60;63.68
7170;BME280;3626;42.656;23.312;2023-04-27T00:22:34;94240.41;;;6.60;63.46
7170;BME280;3626;42.656;23.312;2023-04-27T00:22:39;94242.97;;;6.60;63.54
7170;BME280;3626;42.656;23.312;2023-04-27T00:22:48;94248.09;;;6.60;63.60
7170;BME280;3626;42.656;23.312;2023-04-27T00:22:53;94246.16;;;6.62;63.61
7170;BME280;3626;42.656;23.312;2023-04-27T00:23:01;94248.72;;;6.62;63.76
7170;BME280;3626;42.656;23.312;2023-04-27T00:23:07;94248.72;;;6.62;63.61
7170;BME280;3626;42.656;23.312;2023-04-27T00:23:12;94244.56;;;6.61;63.23
7170;BME280;3626;42.656;23.312;2023-04-27T00:23:18;94239.28;;;6.62;63.92
7170;BME280;3626;42.656;23.312;2023-04-27T00:23:24;94244.41;;;6.62;63.60
7170;BME280;3626;42.656;23.312;2023-04-27T00:23:30;94246.97;;;6.62;63.74
7170;BME280;3626;42.656;23.312;2023-04-27T00:23:39;94241.19;;;6.60;63.42
7170;BME280;3626;42.656;23.312;2023-04-27T00:23:44;94241.19;;;6.60;63.58
7170;BME280;3626;42.656;23.312;2023-04-27T00:23:50;94244.56;;;6.61;63.83
7170;BME280;3626;42.656;23.312;2023-04-27T00:23:56;94242.00;;;6.61;63.51
7170;BME280;3626;42.656;23.312;2023-04-27T00:24:02;94240.41;;;6.60;63.14
7170;BME280;3626;42.656;23.312;2023-04-27T00:24:07;94245.53;;;6.60;63.59
7170;BME280;3626;42.656;23.312;2023-04-27T00:24:15;94242.97;;;6.60;63.52
7170;BME280;3626;42.656;23.312;2023-04-27T00:24:21;94244.72;;;6.59;63.58
7170;BME280;3626;42.656;23.312;2023-04-27T00:24:26;94249.06;;;6.59;63.94
7170;BME280;3626;42.656;23.312;2023-04-27T00:24:32;94238.94;;;6.57;63.97
7170;BME280;3626;42.656;23.312;2023-04-27T00:24:38;94239.72;;;6.58;63.63
7170;BME280;3626;42.656;23.312;2023-04-27T00:24:44;94237.16;;;6.58;63.62
7170;BME280;3626;42.656;23.312;2023-04-27T00:24:49;94236.38;;;6.57;63.47
7170;BME280;3626;42.656;23.312;2023-04-27T00:24:55;94244.06;;;6.57;63.51
7170;BME280;3626;42.656;23.312;2023-04-27T00:25:02;94238.13;;;6.57;63.09
7170;BME280;3626;42.656;23.312;2023-04-27T00:25:08;94245.03;;;6.56;63.29
7170;BME280;3626;42.656;23.312;2023-04-27T00:25:14;94245.03;;;6.56;63.05
7170;BME280;3626;42.656;23.312;2023-04-27T00:25:20;94245.03;;;6.56;63.28
7170;BME280;3626;42.656;23.312;2023-04-27T00:25:25;94239.09;;;6.56;63.52
7170;BME280;3626;42.656;23.312;2023-04-27T00:25:31;94240.84;;;6.55;63.44
7170;BME280;3626;42.656;23.312;2023-04-27T00:25:37;94243.53;;;6.54;63.67
7170;BME280;3626;42.656;23.312;2023-04-27T00:25:43;94243.53;;;6.54;63.66
7170;BME280;3626;42.656;23.312;2023-04-27T00:25:49;94241.94;;;6.53;63.40
7170;BME280;3626;42.656;23.312;2023-04-27T00:25:54;94242.75;;;6.53;63.37
7170;BME280;3626;42.656;23.312;2023-04-27T00:26:00;94234.25;;;6.53;63.89
7170;BME280;3626;42.656;23.312;2023-04-27T00:26:06;94244.50;;;6.53;63.62
7170;BME280;3626;42.656;23.312;2023-04-27T00:26:11;94246.28;;;6.52;63.82
7170;BME280;3626;42.656;23.312;2023-04-27T00:26:17;94247.88;;;6.53;64.38
7170;BME280;3626;42.656;23.312;2023-04-27T00:26:24;94249.63;;;6.53;64.43
7170;BME280;3626;42.656;23.312;2023-04-27T00:26:31;94247.06;;;6.53;63.85
7170;BME280;3626;42.656;23.312;2023-04-27T00:26:37;94245.47;;;6.51;64.23
7170;BME280;3626;42.656;23.312;2023-04-27T00:26:42;94258.13;;;6.53;64.03
7170;BME280;3626;42.656;23.312;2023-04-27T00:26:49;94248.69;;;6.54;64.27
7170;BME280;3626;42.656;23.312;2023-04-27T00:26:55;94257.16;;;6.54;64.09
7170;BME280;3626;42.656;23.312;2023-04-27T00:27:02;94253.81;;;6.54;63.99
7170;BME280;3626;42.656;23.312;2023-04-27T00:27:07;94244.34;;;6.54;63.83
7170;BME280;3626;42.656;23.312;2023-04-27T00:27:13;94252.03;;;6.54;63.74
7170;BME280;3626;42.656;23.312;2023-04-27T00:27:19;94245.31;;;6.53;63.57
7170;BME280;3626;42.656;23.312;2023-04-27T00:27:25;94247.06;;;6.53;63.57
7170;BME280;3626;42.656;23.312;2023-04-27T00:27:30;94244.50;;;6.53;63.65
7170;BME280;3626;42.656;23.312;2023-04-27T00:27:38;94249.63;;;6.53;63.31
7170;BME280;3626;42.656;23.312;2023-04-27T00:27:44;94240.34;;;6.51;63.60
7170;BME280;3626;42.656;23.312;2023-04-27T00:27:50;94250.59;;;6.51;63.29
7170;BME280;3626;42.656;23.312;2023-04-27T00:27:56;94238.59;;;6.52;63.37
7170;BME280;3626;42.656;23.312;2023-04-27T00:28:02;94241.16;;;6.52;63.42
7170;BME280;3626;42.656;23.312;2023-04-27T00:28:08;94240.34;;;6.51;63.58
7170;BME280;3626;42.656;23.312;2023-04-27T00:28:16;94242.09;;;6.51;63.82
7170;BME280;3626;42.656;23.312;2023-04-27T00:28:22;94242.91;;;6.51;63.72
7170;BME280;3626;42.656;23.312;2023-04-27T00:28:28;94241.31;;;6.50;63.43
7170;BME280;3626;42.656;23.312;2023-04-27T00:28:33;94250.59;;;6.51;63.60
7170;BME280;3626;42.656;23.312;2023-04-27T00:28:39;94250.59;;;6.51;63.56
7170;BME280;3626;42.656;23.312;2023-04-27T00:28:45;94245.47;;;6.51;63.68
7170;BME280;3626;42.656;23.312;2023-04-27T00:28:52;94248.03;;;6.51;63.78
7170;BME280;3626;42.656;23.312;2023-04-27T00:28:57;94246.44;;;6.50;63.88
7170;BME280;3626;42.656;23.312;2023-04-27T00:29:03;94250.75;;;6.50;63.93
7170;BME280;3626;42.656;23.312;2023-04-27T00:29:11;94246.44;;;6.50;63.74
7170;BME280;3626;42.656;23.312;2023-04-27T00:29:17;94240.50;;;6.50;63.85
7170;BME280;3626;42.656;23.312;2023-04-27T00:29:23;94248.84;;;6.52;63.99
7170;BME280;3626;42.656;23.312;2023-04-27T00:29:29;94241.31;;;6.50;63.99
7170;BME280;3626;42.656;23.312;2023-04-27T00:29:35;94242.09;;;6.51;63.92
7170;BME280;3626;42.656;23.312;2023-04-27T00:29:40;94243.88;;;6.50;63.98
7170;BME280;3626;42.656;23.312;2023-04-27T00:29:47;94243.88;;;6.50;63.58
7170;BME280;3626;42.656;23.312;2023-04-27T00:29:52;94247.25;;;6.51;63.61
7170;BME280;3626;42.656;23.312;2023-04-27T00:29:58;94241.31;;;6.50;63.42
7170;BME280;3626;42.656;23.312;2023-04-27T00:30:05;94244.81;;;6.49;63.61
7170;BME280;3626;42.656;23.312;2023-04-27T00:30:12;94244.81;;;6.49;63.52
7170;BME280;3626;42.656;23.312;2023-04-27T00:30:18;94236.31;;;6.49;63.95
7170;BME280;3626;42.656;23.312;2023-04-27T00:30:24;94238.06;;;6.48;63.51
7170;BME280;3626;42.656;23.312;2023-04-27T00:30:30;94239.84;;;6.48;63.38
7170;BME280;3626;42.656;23.312;2023-04-27T00:30:35;94236.47;;;6.47;63.87
7170;BME280;3626;42.656;23.312;2023-04-27T00:30:43;94245.94;;;6.47;63.66
7170;BME280;3626;42.656;23.312;2023-04-27T00:30:49;94243.38;;;6.47;63.57
7170;BME280;3626;42.656;23.312;2023-04-27T00:30:58;94236.75;;;6.44;64.07
7170;BME280;3626;42.656;23.312;2023-04-27T00:31:04;94247.03;;;6.44;64.05
7170;BME280;3626;42.656;23.312;2023-04-27T00:31:10;94249.59;;;6.44;63.91
7170;BME280;3626;42.656;23.312;2023-04-27T00:31:16;94246.22;;;6.44;63.77
7170;BME280;3626;42.656;23.312;2023-04-27T00:31:22;94250.53;;;6.43;63.73
7170;BME280;3626;42.656;23.312;2023-04-27T00:31:27;94251.50;;;6.42;63.77
7170;BME280;3626;42.656;23.312;2023-04-27T00:31:33;94248.94;;;6.42;63.99
7170;BME280;3626;42.656;23.312;2023-04-27T00:31:39;94240.44;;;6.42;64.23
7170;BME280;3626;42.656;23.312;2023-04-27T00:31:45;94249.88;;;6.41;64.07
7170;BME280;3626;42.656;23.312;2023-04-27T00:31:51;94248.28;;;6.40;63.91
7170;BME280;3626;42.656;23.312;2023-04-27T00:31:57;94249.22;;;6.39;64.03
7170;BME280;3626;42.656;23.312;2023-04-27T00:32:03;94246.66;;;6.39;63.40
7170;BME280;3626;42.656;23.312;2023-04-27T00:32:09;94251.00;;;6.39;64.08
7170;BME280;3626;42.656;23.312;2023-04-27T00:32:14;94245.06;;;6.38;64.45
7170;BME280;3626;42.656;23.312;2023-04-27T00:32:20;94249.22;;;6.39;64.30
7170;BME280;3626;42.656;23.312;2023-04-27T00:32:26;94251.00;;;6.39;64.44
7170;BME280;3626;42.656;23.312;2023-04-27T00:32:32;94244.09;;;6.39;64.41
7170;BME280;3626;42.656;23.312;2023-04-27T00:32:38;94245.88;;;6.39;64.49
7170;BME280;3626;42.656;23.312;2023-04-27T00:32:46;94245.06;;;6.38;64.32
7170;BME280;3626;42.656;23.312;2023-04-27T00:32:51;94241.53;;;6.39;64.41
7170;BME280;3626;42.656;23.312;2023-04-27T00:32:57;94255.97;;;6.40;64.14
7170;BME280;3626;42.656;23.312;2023-04-27T00:33:03;94250.19;;;6.38;64.22
7170;BME280;3626;42.656;23.312;2023-04-27T00:33:09;94255.97;;;6.40;64.58
7170;BME280;3626;42.656;23.312;2023-04-27T00:33:15;94255.16;;;6.40;64.41
7170;BME280;3626;42.656;23.312;2023-04-27T00:33:22;94253.56;;;6.39;64.57
7170;BME280;3626;42.656;23.312;2023-04-27T00:33:28;94251.00;;;6.39;64.35